Time,TemperatureF,DewpointF,PressureIn,WindDirection,WindDirectionDegrees,WindSpeedMPH,WindSpeedGustMPH,Humidity,HourlyPrecipIn,Conditions,Clouds,dailyrainin,SolarRadiationWatts/m^2,SoftwareType,DateUTC
2013-06-07 00:00:00,66.7,65.2,29.76,WNW,300,0.0,1.0,95,0.03,,OVC,0.00,0.00,VWS V14.00,2013-06-07 04:00:00,
2013-06-07 00:01:00,66.7,65.2,29.76,WNW,300,0.0,2.0,95,0.03,,OVC,0.00,0.00,VWS V14.00,2013-06-07 04:01:00,
2013-06-07 00:02:00,66.7,65.2,29.76,WNW,300,0.0,2.0,95,0.03,,OVC,0.00,0.00,VWS V14.00,2013-06-07 04:02:00,
2013-06-07 00:03:00,66.7,65.2,29.76,WNW,300,0.0,2.0,95,0.03,,OVC,0.00,0.00,VWS V14.00,2013-06-07 04:03:00,
2013-06-07 00:08:00,66.7,65.2,29.75,WNW,300,0.0,2.0,95,0.03,,OVC,0.00,0.00,VWS V14.00,2013-06-07 04:08:00,
2013-06-07 00:14:00,66.7,65.2,29.75,NW,308,0.0,0.0,95,0.02,,OVC,0.00,0.00,VWS V14.00,2013-06-07 04:14:00,
2013-06-07 00:15:00,66.7,65.2,29.75,NW,304,0.0,2.0,95,0.03,,OVC,0.00,0.00,VWS V14.00,2013-06-07 04:15:00,
2013-06-07 00:19:00,66.7,65.2,29.75,NW,309,0.0,1.0,95,0.02,,OVC,0.00,0.00,VWS V14.00,2013-06-07 04:19:00,
2013-06-07 00:24:00,66.7,65.2,29.75,WNW,300,0.0,1.0,95,0.02,,OVC,0.00,0.00,VWS V14.00,2013-06-07 04:24:00,
2013-06-07 00:29:00,66.8,65.3,29.75,WNW,300,0.0,0.0,95,0.02,,OVC,0.00,0.00,VWS V14.00,2013-06-07 04:29:00,
2013-06-07 00:30:00,66.7,65.2,29.75,WNW,300,0.0,1.0,95,0.02,,OVC,0.00,0.00,VWS V14.00,2013-06-07 04:30:00,
2013-06-07 00:34:00,66.8,65.3,29.74,WNW,300,0.0,1.0,95,0.03,,OVC,0.01,0.00,VWS V14.00,2013-06-07 04:34:00,
2013-06-07 00:39:00,66.8,65.3,29.74,WNW,300,0.0,1.0,95,0.03,,OVC,0.01,0.00,VWS V14.00,2013-06-07 04:39:00,
2013-06-07 00:44:00,66.8,65.3,29.75,WNW,290,0.0,0.0,95,0.02,,OVC,0.01,0.00,VWS V14.00,2013-06-07 04:44:00,
2013-06-07 00:45:00,66.8,65.3,29.74,WNW,290,0.0,2.0,95,0.03,,OVC,0.01,0.00,VWS V14.00,2013-06-07 04:45:00,
2013-06-07 00:49:00,66.8,65.3,29.74,WNW,290,0.0,1.0,95,0.02,,OVC,0.01,0.00,VWS V14.00,2013-06-07 04:49:00,
2013-06-07 00:54:00,66.8,65.3,29.74,WNW,290,0.0,1.0,95,0.02,,OVC,0.01,0.00,VWS V14.00,2013-06-07 04:54:00,
2013-06-07 00:59:00,66.9,65.7,29.74,West,263,0.0,0.0,96,0.02,,OVC,0.02,0.00,VWS V14.00,2013-06-07 04:59:00,
2013-06-07 01:00:00,66.8,65.6,29.74,West,263,0.0,2.0,96,0.03,,OVC,0.02,0.00,VWS V14.00,2013-06-07 05:00:00,
2013-06-07 01:04:00,67.0,65.8,29.74,West,263,0.0,0.0,96,0.02,,OVC,0.02,0.00,VWS V14.00,2013-06-07 05:04:00,
2013-06-07 01:09:00,66.9,65.7,29.74,West,263,0.0,1.0,96,0.02,,OVC,0.02,0.00,VWS V14.00,2013-06-07 05:09:00,
2013-06-07 01:14:00,67.0,65.8,29.74,NW,323,0.0,1.0,96,0.02,,OVC,0.02,0.00,VWS V14.00,2013-06-07 05:14:00,
2013-06-07 01:15:00,67.0,65.8,29.74,West,263,0.0,2.0,96,0.02,,OVC,0.02,0.00,VWS V14.00,2013-06-07 05:15:00,
2013-06-07 01:20:00,67.0,65.8,29.73,NW,320,1.0,2.0,96,0.02,,OVC,0.02,0.00,VWS V14.00,2013-06-07 05:20:00,
2013-06-07 01:25:00,67.0,65.8,29.73,West,266,0.0,2.0,96,0.02,,OVC,0.02,0.00,VWS V14.00,2013-06-07 05:25:00,
2013-06-07 01:30:00,67.1,65.9,29.72,West,267,0.0,0.0,96,0.02,,OVC,0.02,0.00,VWS V14.00,2013-06-07 05:30:00,
2013-06-07 01:35:00,67.2,66.0,29.72,SW,229,0.0,4.0,96,0.03,,OVC,0.03,0.00,VWS V14.00,2013-06-07 05:35:00,
2013-06-07 01:40:00,67.2,66.0,29.72,WSW,240,0.0,4.0,96,0.03,,OVC,0.03,0.00,VWS V14.00,2013-06-07 05:40:00,
2013-06-07 01:45:00,67.2,66.0,29.72,WSW,248,1.0,3.0,96,0.02,,OVC,0.03,0.00,VWS V14.00,2013-06-07 05:45:00,
2013-06-07 01:50:00,67.2,66.0,29.71,WNW,294,0.0,3.0,96,0.02,,OVC,0.03,0.00,VWS V14.00,2013-06-07 05:50:00,
2013-06-07 01:55:00,67.3,66.1,29.71,WNW,294,0.0,3.0,96,0.03,,OVC,0.04,0.00,VWS V14.00,2013-06-07 05:55:00,
2013-06-07 02:00:00,67.2,66.0,29.71,SSE,166,0.0,2.0,96,0.02,,OVC,0.04,0.00,VWS V14.00,2013-06-07 06:00:00,
2013-06-07 02:05:00,67.3,66.1,29.71,West,276,0.0,2.0,96,0.02,,OVC,0.04,0.00,VWS V14.00,2013-06-07 06:05:00,
2013-06-07 02:11:00,67.3,66.1,29.71,NW,307,0.0,4.0,96,0.03,,OVC,0.05,0.00,VWS V14.00,2013-06-07 06:11:00,
2013-06-07 02:15:00,67.3,66.1,29.70,NW,307,0.0,4.0,96,0.03,,OVC,0.05,0.00,VWS V14.00,2013-06-07 06:15:00,
2013-06-07 02:16:00,67.2,66.0,29.70,SW,224,0.0,2.0,96,0.04,,OVC,0.06,0.00,VWS V14.00,2013-06-07 06:16:00,
2013-06-07 02:21:00,67.2,66.0,29.69,WSW,252,0.0,1.0,96,0.04,,OVC,0.06,0.00,VWS V14.00,2013-06-07 06:21:00,
2013-06-07 02:26:00,67.2,66.0,29.69,WSW,252,0.0,1.0,96,0.05,,OVC,0.07,0.00,VWS V14.00,2013-06-07 06:26:00,
2013-06-07 02:31:00,67.2,66.0,29.69,NW,313,0.0,2.0,96,0.06,,OVC,0.08,0.00,VWS V14.00,2013-06-07 06:31:00,
2013-06-07 02:36:00,67.2,66.0,29.69,WNW,284,0.0,5.0,96,0.06,,OVC,0.08,0.00,VWS V14.00,2013-06-07 06:36:00,
2013-06-07 02:41:00,67.2,66.0,29.69,WSW,238,0.0,5.0,96,0.07,,OVC,0.09,0.00,VWS V14.00,2013-06-07 06:41:00,
2013-06-07 02:46:00,67.2,66.0,29.69,WNW,297,1.0,4.0,96,0.07,,OVC,0.10,0.00,VWS V14.00,2013-06-07 06:46:00,
2013-06-07 02:51:00,67.2,66.0,29.69,WNW,297,0.0,4.0,96,0.07,,OVC,0.10,0.00,VWS V14.00,2013-06-07 06:51:00,
2013-06-07 02:56:00,67.2,66.0,29.69,SSW,195,0.0,4.0,96,0.08,,OVC,0.11,0.00,VWS V14.00,2013-06-07 06:56:00,
2013-06-07 03:01:00,67.3,66.1,29.69,West,260,0.0,4.0,96,0.08,,OVC,0.12,0.00,VWS V14.00,2013-06-07 07:01:00,
2013-06-07 03:07:00,67.3,66.1,29.68,West,260,0.0,4.0,96,0.09,,OVC,0.13,0.00,VWS V14.00,2013-06-07 07:07:00,
2013-06-07 03:12:00,67.4,66.2,29.68,South,175,0.0,4.0,96,0.10,,OVC,0.14,0.00,VWS V14.00,2013-06-07 07:12:00,
2013-06-07 03:17:00,67.5,66.3,29.68,West,265,0.0,6.0,96,0.11,,OVC,0.16,0.00,VWS V14.00,2013-06-07 07:17:00,
2013-06-07 03:22:00,67.6,66.4,29.67,WNW,296,1.0,8.0,96,0.12,,OVC,0.17,0.00,VWS V14.00,2013-06-07 07:22:00,
2013-06-07 03:27:00,67.7,66.8,29.67,NW,325,0.0,8.0,97,0.13,,OVC,0.18,0.00,VWS V14.00,2013-06-07 07:27:00,
2013-06-07 03:32:00,67.7,66.8,29.67,South,179,0.0,6.0,97,0.12,,OVC,0.19,0.00,VWS V14.00,2013-06-07 07:32:00,
2013-06-07 03:37:00,67.8,66.9,29.66,NNW,330,0.0,7.0,97,0.14,,OVC,0.21,0.00,VWS V14.00,2013-06-07 07:37:00,
2013-06-07 03:42:00,67.8,66.9,29.66,NNW,327,0.0,7.0,97,0.17,,OVC,0.24,0.00,VWS V14.00,2013-06-07 07:42:00,
2013-06-07 03:47:00,67.8,66.9,29.66,SSW,200,1.0,4.0,97,0.17,,OVC,0.26,0.00,VWS V14.00,2013-06-07 07:47:00,
2013-06-07 03:52:00,67.8,66.9,29.66,WSW,243,0.0,4.0,97,0.20,,OVC,0.29,0.00,VWS V14.00,2013-06-07 07:52:00,
2013-06-07 03:57:00,67.8,66.9,29.66,WSW,252,3.0,4.0,97,0.23,,OVC,0.32,0.00,VWS V14.00,2013-06-07 07:57:00,
2013-06-07 04:02:00,67.9,67.0,29.66,South,179,0.0,5.0,97,0.24,,OVC,0.35,0.00,VWS V14.00,2013-06-07 08:02:00,
2013-06-07 04:07:00,67.9,67.0,29.66,South,188,0.0,5.0,97,0.27,,OVC,0.38,0.00,VWS V14.00,2013-06-07 08:07:00,
2013-06-07 04:12:00,68.0,67.1,29.66,SSW,210,4.0,5.0,97,0.30,,OVC,0.41,0.00,VWS V14.00,2013-06-07 08:12:00,
2013-06-07 04:18:00,68.1,67.2,29.66,NW,319,0.0,4.0,97,0.30,,OVC,0.44,0.00,VWS V14.00,2013-06-07 08:18:00,
2013-06-07 04:23:00,68.1,67.2,29.65,SSW,194,0.0,5.0,97,0.33,,OVC,0.47,0.00,VWS V14.00,2013-06-07 08:23:00,
2013-06-07 04:28:00,68.2,67.3,29.65,SSE,160,0.0,0.0,97,0.32,,OVC,0.50,0.00,VWS V14.00,2013-06-07 08:28:00,
2013-06-07 04:33:00,68.3,67.4,29.65,East,101,0.0,6.0,97,0.35,,OVC,0.53,0.00,VWS V14.00,2013-06-07 08:33:00,
2013-06-07 04:38:00,68.3,67.4,29.66,South,190,4.0,6.0,97,0.38,,OVC,0.56,0.00,VWS V14.00,2013-06-07 08:38:00,
2013-06-07 04:43:00,68.4,67.5,29.65,SSW,192,0.0,0.0,97,0.34,,OVC,0.58,0.00,VWS V14.00,2013-06-07 08:43:00,
2013-06-07 04:48:00,68.5,67.6,29.65,West,260,0.0,5.0,97,0.37,,OVC,0.61,0.00,VWS V14.00,2013-06-07 08:48:00,
2013-06-07 04:53:00,68.6,67.7,29.65,SW,228,0.0,5.0,97,0.40,,OVC,0.64,0.00,VWS V14.00,2013-06-07 08:53:00,
2013-06-07 04:58:00,68.8,67.9,29.65,East,96,4.0,4.0,97,0.34,,OVC,0.66,0.00,VWS V14.00,2013-06-07 08:58:00,
2013-06-07 05:03:00,68.9,68.0,29.65,South,184,1.0,6.0,97,0.37,,OVC,0.69,0.00,VWS V14.00,2013-06-07 09:03:00,
2013-06-07 05:08:00,69.0,68.1,29.65,South,170,0.0,6.0,97,0.40,,OVC,0.72,0.00,VWS V14.00,2013-06-07 09:08:00,
2013-06-07 05:13:00,69.1,68.2,29.65,SW,220,0.0,2.0,97,0.33,,OVC,0.74,0.00,VWS V14.00,2013-06-07 09:13:00,
2013-06-07 05:18:00,69.2,68.3,29.65,SW,222,1.0,4.0,97,0.36,,OVC,0.77,0.00,VWS V14.00,2013-06-07 09:18:00,
2013-06-07 05:23:00,69.3,68.4,29.65,WSW,244,0.0,5.0,97,0.39,,OVC,0.80,0.00,VWS V14.00,2013-06-07 09:23:00,
2013-06-07 05:29:00,69.3,68.4,29.65,SSW,204,0.0,1.0,97,0.32,,OVC,0.82,0.00,VWS V14.00,2013-06-07 09:29:00,
2013-06-07 05:34:00,69.4,68.5,29.65,SSW,200,0.0,4.0,97,0.35,,OVC,0.85,0.00,VWS V14.00,2013-06-07 09:34:00,
2013-06-07 05:39:00,69.4,68.5,29.65,SW,225,0.0,4.0,97,0.37,,OVC,0.87,0.00,VWS V14.00,2013-06-07 09:39:00,
2013-06-07 05:44:00,69.5,68.6,29.65,SE,134,0.0,0.0,97,0.32,,OVC,0.90,0.00,VWS V14.00,2013-06-07 09:44:00,
2013-06-07 05:49:00,69.5,68.6,29.65,SSE,155,1.0,3.0,97,0.34,,OVC,0.92,0.00,VWS V14.00,2013-06-07 09:49:00,
2013-06-07 05:54:00,69.5,68.6,29.65,SSE,167,2.0,3.0,97,0.36,,OVC,0.94,0.00,VWS V14.00,2013-06-07 09:54:00,
2013-06-07 05:59:00,69.5,68.6,29.65,SSE,167,0.0,0.0,97,0.30,,OVC,0.96,0.00,VWS V14.00,2013-06-07 09:59:00,
2013-06-07 06:04:00,69.5,68.6,29.65,ESE,105,0.0,4.0,97,0.32,,OVC,0.98,0.00,VWS V14.00,2013-06-07 10:04:00,
2013-06-07 06:09:00,69.5,68.6,29.65,SW,225,1.0,5.0,97,0.34,,OVC,1.00,0.00,VWS V14.00,2013-06-07 10:09:00,
2013-06-07 06:14:00,69.6,68.7,29.66,SW,214,0.0,1.0,97,0.28,,OVC,1.02,0.00,VWS V14.00,2013-06-07 10:14:00,
2013-06-07 06:19:00,69.6,68.7,29.66,SSW,212,0.0,2.0,97,0.30,,OVC,1.04,5.00,VWS V14.00,2013-06-07 10:19:00,
2013-06-07 06:24:00,69.6,68.7,29.66,WSW,240,3.0,4.0,97,0.32,,OVC,1.06,5.00,VWS V14.00,2013-06-07 10:24:00,
2013-06-07 06:29:00,69.6,68.7,29.66,South,178,0.0,0.0,97,0.26,,OVC,1.08,7.00,VWS V14.00,2013-06-07 10:29:00,
2013-06-07 06:34:00,69.6,68.7,29.66,South,184,0.0,2.0,97,0.28,,OVC,1.10,9.00,VWS V14.00,2013-06-07 10:34:00,
2013-06-07 06:39:00,69.6,68.7,29.66,SSW,213,0.0,5.0,97,0.30,,OVC,1.12,11.00,VWS V14.00,2013-06-07 10:39:00,
2013-06-07 06:44:00,69.6,68.7,29.66,SW,223,0.0,3.0,97,0.73,,OVC,1.62,11.00,VWS V14.00,2013-06-07 10:44:00,
2013-06-07 06:49:00,69.6,68.7,29.66,SW,223,0.0,3.0,97,0.74,,OVC,1.63,12.00,VWS V14.00,2013-06-07 10:49:00,
2013-06-07 06:54:00,69.6,68.7,29.66,South,169,0.0,5.0,97,0.74,,OVC,1.63,14.00,VWS V14.00,2013-06-07 10:54:00,
2013-06-07 07:00:00,69.7,68.8,29.66,South,169,0.0,0.0,97,0.67,,OVC,1.63,18.00,VWS V14.00,2013-06-07 11:00:00,
2013-06-07 07:05:00,69.6,68.7,29.66,SE,128,0.0,4.0,97,0.67,,OVC,1.63,14.00,VWS V14.00,2013-06-07 11:05:00,
2013-06-07 07:10:00,69.7,68.8,29.66,SSW,196,0.0,4.0,97,0.67,,OVC,1.63,16.00,VWS V14.00,2013-06-07 11:10:00,
2013-06-07 07:15:00,69.7,68.8,29.66,SE,134,0.0,2.0,97,0.61,,OVC,1.63,12.00,VWS V14.00,2013-06-07 11:15:00,
2013-06-07 07:20:00,69.7,68.8,29.66,East,88,2.0,2.0,97,0.61,,OVC,1.63,16.00,VWS V14.00,2013-06-07 11:20:00,
2013-06-07 07:25:00,69.7,68.8,29.66,SSE,161,0.0,2.0,97,0.62,,OVC,1.64,14.00,VWS V14.00,2013-06-07 11:25:00,
2013-06-07 07:30:00,69.7,68.8,29.66,South,171,0.0,1.0,97,0.57,,OVC,1.65,21.00,VWS V14.00,2013-06-07 11:30:00,
2013-06-07 07:35:00,69.8,68.9,29.67,South,171,0.0,1.0,97,0.59,,OVC,1.67,23.00,VWS V14.00,2013-06-07 11:35:00,
2013-06-07 07:40:00,69.8,68.9,29.67,South,171,0.0,1.0,97,0.59,,OVC,1.67,21.00,VWS V14.00,2013-06-07 11:40:00,
2013-06-07 07:45:00,69.8,68.9,29.67,South,171,0.0,0.0,97,0.05,,OVC,1.67,21.00,VWS V14.00,2013-06-07 11:45:00,
2013-06-07 07:50:00,69.9,69.0,29.67,South,171,0.0,0.0,97,0.06,,OVC,1.68,19.00,VWS V14.00,2013-06-07 11:50:00,
2013-06-07 07:55:00,69.9,69.0,29.67,South,171,0.0,0.0,97,0.06,,OVC,1.68,21.00,VWS V14.00,2013-06-07 11:55:00,
2013-06-07 08:00:00,69.9,69.0,29.67,South,171,0.0,0.0,97,0.06,,OVC,1.69,21.00,VWS V14.00,2013-06-07 12:00:00,
2013-06-07 08:05:00,69.9,69.0,29.67,South,171,0.0,0.0,97,0.06,,OVC,1.69,19.00,VWS V14.00,2013-06-07 12:05:00,
2013-06-07 08:10:00,69.9,69.0,29.67,South,171,0.0,0.0,97,0.06,,OVC,1.69,23.00,VWS V14.00,2013-06-07 12:10:00,
2013-06-07 08:16:00,69.9,69.0,29.67,South,171,0.0,0.0,97,0.06,,OVC,1.69,23.00,VWS V14.00,2013-06-07 12:16:00,
2013-06-07 08:21:00,69.9,69.0,29.67,South,171,0.0,0.0,97,0.07,,OVC,1.70,19.00,VWS V14.00,2013-06-07 12:21:00,
2013-06-07 08:26:00,69.9,69.0,29.67,South,171,0.0,1.0,97,0.08,,OVC,1.71,23.00,VWS V14.00,2013-06-07 12:26:00,
2013-06-07 08:31:00,69.9,69.0,29.67,South,171,0.0,0.0,97,0.07,,OVC,1.71,32.00,VWS V14.00,2013-06-07 12:31:00,
2013-06-07 08:36:00,69.9,69.0,29.67,South,171,0.0,0.0,97,0.08,,OVC,1.72,40.00,VWS V14.00,2013-06-07 12:36:00,
2013-06-07 08:41:00,70.0,69.1,29.67,South,171,0.0,0.0,97,0.09,,OVC,1.73,28.00,VWS V14.00,2013-06-07 12:41:00,
2013-06-07 08:46:00,70.0,69.1,29.67,South,171,0.0,0.0,97,0.08,,OVC,1.75,33.00,VWS V14.00,2013-06-07 12:46:00,
2013-06-07 08:51:00,70.1,69.2,29.67,South,171,0.0,0.0,97,0.09,,OVC,1.76,35.00,VWS V14.00,2013-06-07 12:51:00,
2013-06-07 08:57:00,70.1,69.2,29.67,South,171,0.0,0.0,97,0.10,,OVC,1.77,32.00,VWS V14.00,2013-06-07 12:57:00,
2013-06-07 09:02:00,70.1,69.2,29.68,South,171,0.0,0.0,97,0.09,,OVC,1.78,40.00,VWS V14.00,2013-06-07 13:02:00,
2013-06-07 09:07:00,70.1,69.2,29.67,South,171,0.0,0.0,97,0.10,,OVC,1.79,47.00,VWS V14.00,2013-06-07 13:07:00,
2013-06-07 09:12:00,70.1,69.2,29.67,South,171,0.0,0.0,97,0.10,,OVC,1.79,56.00,VWS V14.00,2013-06-07 13:12:00,
2013-06-07 09:17:00,70.1,69.2,29.67,South,171,0.0,0.0,97,0.11,,OVC,1.80,51.00,VWS V14.00,2013-06-07 13:17:00,
2013-06-07 09:22:00,70.1,69.2,29.67,South,171,0.0,0.0,97,0.12,,OVC,1.81,53.00,VWS V14.00,2013-06-07 13:22:00,
2013-06-07 09:27:00,70.1,69.2,29.67,South,171,0.0,1.0,97,0.12,,OVC,1.81,46.00,VWS V14.00,2013-06-07 13:27:00,
2013-06-07 09:32:00,70.1,69.2,29.67,South,171,0.0,0.0,97,0.11,,OVC,1.82,53.00,VWS V14.00,2013-06-07 13:32:00,
2013-06-07 09:37:00,70.1,69.2,29.67,South,171,0.0,0.0,97,0.11,,OVC,1.82,51.00,VWS V14.00,2013-06-07 13:37:00,
2013-06-07 09:42:00,70.1,69.2,29.66,South,171,0.0,0.0,97,0.12,,OVC,1.83,49.00,VWS V14.00,2013-06-07 13:42:00,
2013-06-07 09:47:00,70.1,69.2,29.66,South,171,0.0,0.0,97,0.10,,OVC,1.83,49.00,VWS V14.00,2013-06-07 13:47:00,
2013-06-07 09:52:00,70.2,69.3,29.66,South,171,0.0,0.0,97,0.11,,OVC,1.84,53.00,VWS V14.00,2013-06-07 13:52:00,
2013-06-07 09:57:00,70.2,69.3,29.66,South,171,0.0,0.0,97,0.11,,OVC,1.84,47.00,VWS V14.00,2013-06-07 13:57:00,
2013-06-07 10:02:00,70.2,69.3,29.66,South,171,0.0,0.0,97,0.08,,OVC,1.85,51.00,VWS V14.00,2013-06-07 14:02:00,
2013-06-07 10:07:00,70.2,69.3,29.66,South,171,0.0,0.0,97,0.09,,OVC,1.86,53.00,VWS V14.00,2013-06-07 14:07:00,
2013-06-07 10:12:00,70.2,69.3,29.66,South,171,0.0,0.0,97,0.09,,OVC,1.86,70.00,VWS V14.00,2013-06-07 14:12:00,
2013-06-07 10:18:00,70.3,69.4,29.66,South,171,0.0,0.0,97,0.08,,OVC,1.87,79.00,VWS V14.00,2013-06-07 14:18:00,
2013-06-07 10:23:00,70.4,69.5,29.66,South,171,0.0,0.0,97,0.08,,OVC,1.87,91.00,VWS V14.00,2013-06-07 14:23:00,
2013-06-07 10:28:00,70.4,69.5,29.65,South,171,0.0,0.0,97,0.07,,OVC,1.88,102.00,VWS V14.00,2013-06-07 14:28:00,
2013-06-07 10:33:00,70.6,69.7,29.65,South,171,0.0,0.0,97,0.07,,OVC,1.88,107.00,VWS V14.00,2013-06-07 14:33:00,
2013-06-07 10:38:00,70.7,69.8,29.65,South,171,0.0,0.0,97,0.07,,OVC,1.88,104.00,VWS V14.00,2013-06-07 14:38:00,
2013-06-07 10:43:00,70.6,69.7,29.65,South,171,0.0,0.0,97,0.05,,OVC,1.88,153.00,VWS V14.00,2013-06-07 14:43:00,
2013-06-07 10:48:00,70.7,69.8,29.65,South,171,0.0,0.0,97,0.05,,OVC,1.88,135.00,VWS V14.00,2013-06-07 14:48:00,
2013-06-07 10:53:00,70.6,69.7,29.65,South,171,0.0,0.0,97,0.05,,OVC,1.88,134.00,VWS V14.00,2013-06-07 14:53:00,
2013-06-07 10:58:00,70.6,69.7,29.65,South,171,0.0,0.0,97,0.05,,OVC,1.89,116.00,VWS V14.00,2013-06-07 14:58:00,
2013-06-07 11:03:00,70.5,69.6,29.64,South,171,0.0,1.0,97,0.05,,OVC,1.89,135.00,VWS V14.00,2013-06-07 15:03:00,
2013-06-07 11:08:00,70.5,69.6,29.64,South,171,0.0,1.0,97,0.05,,OVC,1.89,130.00,VWS V14.00,2013-06-07 15:08:00,
2013-06-07 11:13:00,70.6,69.7,29.65,South,171,0.0,0.0,97,0.03,,OVC,1.89,111.00,VWS V14.00,2013-06-07 15:13:00,
2013-06-07 11:18:00,70.8,69.9,29.64,South,171,0.0,0.0,97,0.04,,OVC,1.90,93.00,VWS V14.00,2013-06-07 15:18:00,
2013-06-07 11:23:00,70.9,70.0,29.64,South,171,0.0,0.0,97,0.04,,OVC,1.90,111.00,VWS V14.00,2013-06-07 15:23:00,
2013-06-07 11:28:00,70.9,70.0,29.64,South,171,0.0,0.0,97,0.03,,OVC,1.91,113.00,VWS V14.00,2013-06-07 15:28:00,
2013-06-07 11:33:00,70.9,70.0,29.64,NNE,15,0.0,2.0,97,0.03,,OVC,1.91,72.00,VWS V14.00,2013-06-07 15:33:00,
2013-06-07 11:39:00,71.0,70.1,29.64,NNE,15,0.0,2.0,97,0.04,,OVC,1.92,33.00,VWS V14.00,2013-06-07 15:39:00,
2013-06-07 11:44:00,70.9,70.0,29.64,NNE,15,0.0,0.0,97,0.08,,OVC,1.96,19.00,VWS V14.00,2013-06-07 15:44:00,
2013-06-07 11:49:00,70.8,69.9,29.64,North,11,1.0,3.0,97,0.10,,OVC,1.98,21.00,VWS V14.00,2013-06-07 15:49:00,
2013-06-07 11:54:00,70.8,69.9,29.64,North,11,0.0,3.0,97,0.11,,OVC,1.99,35.00,VWS V14.00,2013-06-07 15:54:00,
2013-06-07 11:59:00,70.8,69.9,29.63,West,263,0.0,3.0,97,0.13,,OVC,2.01,69.00,VWS V14.00,2013-06-07 15:59:00,
2013-06-07 12:04:00,70.7,69.8,29.63,West,261,0.0,3.0,97,0.14,,OVC,2.02,79.00,VWS V14.00,2013-06-07 16:04:00,
2013-06-07 12:09:00,70.7,69.8,29.63,West,261,0.0,3.0,97,0.15,,OVC,2.03,65.00,VWS V14.00,2013-06-07 16:09:00,
2013-06-07 12:14:00,70.7,69.8,29.63,West,261,0.0,0.0,97,0.16,,OVC,2.05,65.00,VWS V14.00,2013-06-07 16:14:00,
2013-06-07 12:19:00,70.7,69.8,29.63,WNW,289,0.0,1.0,97,0.18,,OVC,2.07,62.00,VWS V14.00,2013-06-07 16:19:00,
2013-06-07 12:24:00,70.6,69.7,29.62,WNW,289,0.0,1.0,97,0.21,,OVC,2.10,40.00,VWS V14.00,2013-06-07 16:24:00,
2013-06-07 12:29:00,70.5,69.6,29.62,North,5,0.0,3.0,97,0.22,,OVC,2.12,49.00,VWS V14.00,2013-06-07 16:29:00,
2013-06-07 12:34:00,70.3,69.4,29.62,North,5,0.0,3.0,97,0.24,,OVC,2.14,40.00,VWS V14.00,2013-06-07 16:34:00,
2013-06-07 12:39:00,70.3,69.4,29.62,North,5,0.0,3.0,97,0.26,,OVC,2.16,32.00,VWS V14.00,2013-06-07 16:39:00,
2013-06-07 12:44:00,70.2,69.3,29.62,North,5,0.0,0.0,97,0.25,,OVC,2.20,33.00,VWS V14.00,2013-06-07 16:44:00,
2013-06-07 12:49:00,70.1,69.2,29.61,North,5,0.0,0.0,97,0.30,,OVC,2.25,49.00,VWS V14.00,2013-06-07 16:49:00,
2013-06-07 12:55:00,70.1,69.2,29.61,North,5,0.0,0.0,97,0.34,,OVC,2.29,28.00,VWS V14.00,2013-06-07 16:55:00,
2013-06-07 13:00:00,70.0,69.1,29.61,North,5,0.0,0.0,97,0.31,,OVC,2.32,23.00,VWS V14.00,2013-06-07 17:00:00,
2013-06-07 13:05:00,69.9,69.0,29.61,North,5,0.0,2.0,97,0.34,,OVC,2.35,19.00,VWS V14.00,2013-06-07 17:05:00,
2013-06-07 13:10:00,69.8,68.9,29.59,North,5,0.0,2.0,97,0.36,,OVC,2.37,54.00,VWS V14.00,2013-06-07 17:10:00,
2013-06-07 13:15:00,69.6,68.7,29.59,North,5,0.0,1.0,97,0.34,,OVC,2.39,114.00,VWS V14.00,2013-06-07 17:15:00,
2013-06-07 13:20:00,69.7,68.8,29.58,North,5,0.0,2.0,97,0.36,,OVC,2.41,202.00,VWS V14.00,2013-06-07 17:20:00,
2013-06-07 13:25:00,69.7,68.8,29.58,North,5,0.0,2.0,97,0.37,,OVC,2.42,192.00,VWS V14.00,2013-06-07 17:25:00,
2013-06-07 13:30:00,69.9,69.0,29.58,North,5,0.0,0.0,97,0.31,,OVC,2.43,114.00,VWS V14.00,2013-06-07 17:30:00,
2013-06-07 13:35:00,70.0,69.1,29.58,North,351,0.0,2.0,97,0.31,,OVC,2.43,98.00,VWS V14.00,2013-06-07 17:35:00,
2013-06-07 13:40:00,69.9,69.0,29.58,NNE,15,0.0,3.0,97,0.31,,OVC,2.43,88.00,VWS V14.00,2013-06-07 17:40:00,
2013-06-07 13:45:00,70.0,69.1,29.58,NNE,15,0.0,1.0,97,0.25,,OVC,2.43,91.00,VWS V14.00,2013-06-07 17:45:00,
2013-06-07 13:50:00,69.9,69.0,29.57,NNE,15,0.0,3.0,97,0.26,,OVC,2.44,97.00,VWS V14.00,2013-06-07 17:50:00,
2013-06-07 13:55:00,69.8,68.9,29.57,NNE,17,0.0,3.0,97,0.28,,OVC,2.46,93.00,VWS V14.00,2013-06-07 17:55:00,
2013-06-07 14:00:00,69.8,68.9,29.57,NNE,17,0.0,1.0,97,0.18,,OVC,2.49,97.00,VWS V14.00,2013-06-07 18:00:00,
2013-06-07 14:06:00,69.8,68.9,29.58,NNE,17,0.0,1.0,97,0.21,,OVC,2.52,60.00,VWS V14.00,2013-06-07 18:06:00,
2013-06-07 14:11:00,69.8,68.9,29.57,North,10,2.0,4.0,97,0.24,,OVC,2.55,65.00,VWS V14.00,2013-06-07 18:11:00,
2013-06-07 14:16:00,69.7,68.8,29.56,North,9,0.0,3.0,97,0.21,,OVC,2.59,69.00,VWS V14.00,2013-06-07 18:16:00,
2013-06-07 14:21:00,69.7,68.8,29.56,North,11,0.0,3.0,97,0.25,,OVC,2.63,90.00,VWS V14.00,2013-06-07 18:21:00,
2013-06-07 14:26:00,69.6,68.7,29.56,NNE,22,0.0,6.0,97,0.27,,OVC,2.65,67.00,VWS V14.00,2013-06-07 18:26:00,
2013-06-07 14:31:00,69.5,68.6,29.55,North,9,0.0,5.0,97,0.23,,OVC,2.65,67.00,VWS V14.00,2013-06-07 18:31:00,
2013-06-07 14:36:00,69.3,68.4,29.55,NNE,26,0.0,5.0,97,0.23,,OVC,2.65,72.00,VWS V14.00,2013-06-07 18:36:00,
2013-06-07 14:41:00,69.1,68.2,29.55,North,9,0.0,5.0,97,0.24,,OVC,2.66,56.00,VWS V14.00,2013-06-07 18:41:00,
2013-06-07 14:46:00,69.0,68.1,29.54,North,9,0.0,3.0,97,0.23,,OVC,2.66,51.00,VWS V14.00,2013-06-07 18:46:00,
2013-06-07 14:52:00,69.1,68.2,29.54,North,9,1.0,3.0,97,0.23,,OVC,2.66,70.00,VWS V14.00,2013-06-07 18:52:00,
2013-06-07 14:57:00,69.2,68.3,29.54,NNW,345,0.0,4.0,97,0.23,,OVC,2.66,86.00,VWS V14.00,2013-06-07 18:57:00,
2013-06-07 15:03:00,69.2,68.3,29.53,NNE,15,1.0,4.0,97,0.20,,OVC,2.67,88.00,VWS V14.00,2013-06-07 19:03:00,
2013-06-07 15:08:00,69.2,68.3,29.54,North,355,1.0,6.0,97,0.20,,OVC,2.67,77.00,VWS V14.00,2013-06-07 19:08:00,
2013-06-07 15:13:00,69.1,68.2,29.53,North,355,0.0,1.0,97,0.11,,OVC,2.67,77.00,VWS V14.00,2013-06-07 19:13:00,
2013-06-07 15:18:00,69.2,68.3,29.52,North,351,0.0,4.0,97,0.11,,OVC,2.67,84.00,VWS V14.00,2013-06-07 19:18:00,
2013-06-07 15:23:00,69.2,68.3,29.52,NNE,15,0.0,6.0,97,0.11,,OVC,2.67,86.00,VWS V14.00,2013-06-07 19:23:00,
2013-06-07 15:28:00,69.3,68.4,29.52,NE,34,0.0,2.0,97,0.02,,OVC,2.67,86.00,VWS V14.00,2013-06-07 19:28:00,
2013-06-07 15:34:00,69.3,68.4,29.52,North,355,0.0,4.0,97,0.02,,OVC,2.67,60.00,VWS V14.00,2013-06-07 19:34:00,
2013-06-07 15:39:00,69.4,68.5,29.52,NW,323,0.0,4.0,97,0.02,,OVC,2.67,51.00,VWS V14.00,2013-06-07 19:39:00,
2013-06-07 15:44:00,69.4,68.5,29.52,North,355,0.0,1.0,97,0.01,,OVC,2.67,49.00,VWS V14.00,2013-06-07 19:44:00,
2013-06-07 15:50:00,69.4,68.5,29.52,North,9,0.0,2.0,97,0.01,,OVC,2.67,39.00,VWS V14.00,2013-06-07 19:50:00,
2013-06-07 15:55:00,69.3,68.4,29.52,North,9,0.0,4.0,97,0.02,,OVC,2.68,42.00,VWS V14.00,2013-06-07 19:55:00,
2013-06-07 16:00:00,69.4,68.5,29.52,North,5,1.0,5.0,97,0.02,,OVC,2.68,58.00,VWS V14.00,2013-06-07 20:00:00,
2013-06-07 16:06:00,69.3,68.4,29.51,NE,38,0.0,5.0,97,0.03,,OVC,2.69,56.00,VWS V14.00,2013-06-07 20:06:00,
2013-06-07 16:11:00,69.4,68.5,29.51,NNE,30,0.0,5.0,97,0.03,,OVC,2.69,53.00,VWS V14.00,2013-06-07 20:11:00,
2013-06-07 16:16:00,69.5,68.6,29.50,NNE,13,1.0,5.0,97,0.03,,OVC,2.70,47.00,VWS V14.00,2013-06-07 20:16:00,
2013-06-07 16:21:00,69.4,68.5,29.49,NE,51,0.0,7.0,97,0.04,,OVC,2.71,35.00,VWS V14.00,2013-06-07 20:21:00,
2013-06-07 16:27:00,69.4,68.5,29.48,NNE,15,2.0,7.0,97,0.04,,OVC,2.71,33.00,VWS V14.00,2013-06-07 20:27:00,
2013-06-07 16:32:00,69.4,68.5,29.48,NE,35,1.0,4.0,97,0.05,,OVC,2.72,35.00,VWS V14.00,2013-06-07 20:32:00,
2013-06-07 16:37:00,69.3,68.4,29.48,NNE,15,1.0,5.0,97,0.06,,OVC,2.73,39.00,VWS V14.00,2013-06-07 20:37:00,
2013-06-07 16:42:00,69.4,68.5,29.48,North,355,1.0,5.0,97,0.07,,OVC,2.74,37.00,VWS V14.00,2013-06-07 20:42:00,
2013-06-07 16:47:00,69.3,68.4,29.48,NNE,25,1.0,5.0,97,0.07,,OVC,2.74,26.00,VWS V14.00,2013-06-07 20:47:00,
2013-06-07 16:52:00,69.3,68.4,29.49,East,82,0.0,5.0,97,0.08,,OVC,2.75,18.00,VWS V14.00,2013-06-07 20:52:00,
2013-06-07 16:57:00,69.3,68.4,29.50,NE,55,0.0,5.0,97,0.08,,OVC,2.75,11.00,VWS V14.00,2013-06-07 20:57:00,
2013-06-07 17:03:00,69.3,68.4,29.50,NNE,14,0.0,5.0,97,0.08,,OVC,2.76,7.00,VWS V14.00,2013-06-07 21:03:00,
2013-06-07 17:08:00,69.3,68.4,29.50,NNE,15,0.0,5.0,97,0.09,,OVC,2.77,9.00,VWS V14.00,2013-06-07 21:08:00,
2013-06-07 17:13:00,69.3,68.4,29.50,North,355,0.0,2.0,97,0.09,,OVC,2.78,7.00,VWS V14.00,2013-06-07 21:13:00,
2013-06-07 17:18:00,69.3,68.4,29.48,ENE,57,0.0,4.0,97,0.10,,OVC,2.79,9.00,VWS V14.00,2013-06-07 21:18:00,
2013-06-07 17:24:00,69.3,68.4,29.48,NNW,338,0.0,7.0,97,0.12,,OVC,2.81,12.00,VWS V14.00,2013-06-07 21:24:00,
2013-06-07 17:29:00,69.2,68.3,29.47,North,5,3.0,6.0,97,0.11,,OVC,2.83,11.00,VWS V14.00,2013-06-07 21:29:00,
2013-06-07 17:34:00,69.2,68.3,29.46,NNE,15,4.0,6.0,97,0.13,,OVC,2.85,16.00,VWS V14.00,2013-06-07 21:34:00,
2013-06-07 17:39:00,69.1,68.2,29.45,North,5,1.0,6.0,97,0.15,,OVC,2.87,19.00,VWS V14.00,2013-06-07 21:39:00,
2013-06-07 17:44:00,69.1,68.2,29.46,WNW,291,0.0,6.0,97,0.14,,OVC,2.88,28.00,VWS V14.00,2013-06-07 21:44:00,
2013-06-07 17:49:00,69.1,68.2,29.45,North,355,5.0,8.0,97,0.15,,OVC,2.89,40.00,VWS V14.00,2013-06-07 21:49:00,
2013-06-07 17:54:00,69.2,68.3,29.44,North,360,1.0,8.0,97,0.16,,OVC,2.90,56.00,VWS V14.00,2013-06-07 21:54:00,
2013-06-07 17:59:00,69.2,68.3,29.45,NNE,15,0.0,3.0,97,0.15,,OVC,2.90,46.00,VWS V14.00,2013-06-07 21:59:00,
2013-06-07 18:04:00,69.2,68.3,29.46,North,360,0.0,5.0,97,0.15,,OVC,2.90,30.00,VWS V14.00,2013-06-07 22:04:00,
2013-06-07 18:09:00,69.3,68.4,29.46,ENE,61,0.0,5.0,97,0.15,,OVC,2.90,35.00,VWS V14.00,2013-06-07 22:09:00,
2013-06-07 18:15:00,69.3,68.4,29.46,North,5,0.0,6.0,97,0.12,,OVC,2.90,26.00,VWS V14.00,2013-06-07 22:15:00,
2013-06-07 18:20:00,69.3,68.4,29.46,NNE,23,2.0,6.0,97,0.12,,OVC,2.90,37.00,VWS V14.00,2013-06-07 22:20:00,
2013-06-07 18:25:00,69.4,68.5,29.46,North,355,0.0,6.0,97,0.12,,OVC,2.90,28.00,VWS V14.00,2013-06-07 22:25:00,
2013-06-07 18:30:00,69.4,68.5,29.46,North,5,0.0,3.0,97,0.09,,OVC,2.91,23.00,VWS V14.00,2013-06-07 22:30:00,
2013-06-07 18:35:00,69.4,68.5,29.46,NNE,15,0.0,4.0,97,0.09,,OVC,2.91,25.00,VWS V14.00,2013-06-07 22:35:00,
2013-06-07 18:40:00,69.4,68.5,29.46,WNW,296,0.0,5.0,97,0.09,,OVC,2.91,16.00,VWS V14.00,2013-06-07 22:40:00,
2013-06-07 18:46:00,69.4,68.5,29.46,NNE,25,0.0,3.0,97,0.03,,OVC,2.91,12.00,VWS V14.00,2013-06-07 22:46:00,
2013-06-07 18:52:00,69.4,68.2,29.46,NE,40,2.0,3.0,96,0.03,,OVC,2.91,14.00,VWS V14.00,2013-06-07 22:52:00,
2013-06-07 18:57:00,69.4,68.2,29.45,WNW,298,0.0,5.0,96,0.03,,OVC,2.91,11.00,VWS V14.00,2013-06-07 22:57:00,
2013-06-07 19:02:00,69.3,68.1,29.45,NNW,337,0.0,5.0,96,0.01,,OVC,2.91,9.00,VWS V14.00,2013-06-07 23:02:00,
2013-06-07 19:07:00,69.3,68.1,29.46,NE,47,0.0,5.0,96,0.01,,OVC,2.91,11.00,VWS V14.00,2013-06-07 23:07:00,
2013-06-07 19:12:00,69.3,68.1,29.45,North,351,1.0,5.0,96,0.01,,OVC,2.91,11.00,VWS V14.00,2013-06-07 23:12:00,
2013-06-07 19:17:00,69.3,68.1,29.45,North,10,2.0,6.0,96,0.01,,OVC,2.91,11.00,VWS V14.00,2013-06-07 23:17:00,
2013-06-07 19:22:00,69.2,68.0,29.45,NNE,24,2.0,6.0,96,0.01,,OVC,2.91,9.00,VWS V14.00,2013-06-07 23:22:00,
2013-06-07 19:27:00,69.2,68.0,29.46,North,360,1.0,6.0,96,0.01,,OVC,2.91,7.00,VWS V14.00,2013-06-07 23:27:00,
2013-06-07 19:32:00,69.2,68.0,29.45,North,351,0.0,4.0,96,0.01,,OVC,2.91,7.00,VWS V14.00,2013-06-07 23:32:00,
2013-06-07 19:37:00,69.2,68.0,29.46,North,360,0.0,5.0,96,0.01,,OVC,2.91,7.00,VWS V14.00,2013-06-07 23:37:00,
2013-06-07 19:42:00,69.2,68.0,29.46,North,355,2.0,6.0,96,0.01,,OVC,2.91,5.00,VWS V14.00,2013-06-07 23:42:00,
2013-06-07 19:48:00,69.1,67.9,29.46,NW,317,1.0,4.0,96,0.00,,OVC,2.91,0.00,VWS V14.00,2013-06-07 23:48:00,
2013-06-07 19:53:00,69.1,67.9,29.46,NNW,348,0.0,5.0,96,0.00,,OVC,2.91,0.00,VWS V14.00,2013-06-07 23:53:00,
2013-06-07 19:58:00,69.0,67.8,29.46,NNW,338,1.0,1.0,96,0.00,,OVC,2.91,0.00,VWS V14.00,2013-06-07 23:58:00,
2013-06-07 20:03:00,68.9,67.7,29.46,NNW,340,1.0,3.0,96,0.01,,OVC,2.92,0.00,VWS V14.00,2013-06-08 00:03:00,
2013-06-07 20:08:00,68.8,67.6,29.46,NNE,18,0.0,4.0,96,0.01,,OVC,2.92,0.00,VWS V14.00,2013-06-08 00:08:00,
2013-06-07 20:13:00,68.6,67.4,29.46,NNW,344,0.0,1.0,96,0.01,,OVC,2.92,0.00,VWS V14.00,2013-06-08 00:13:00,
2013-06-07 20:18:00,68.6,67.4,29.46,NNE,30,0.0,4.0,96,0.01,,OVC,2.92,0.00,VWS V14.00,2013-06-08 00:18:00,
2013-06-07 20:24:00,68.6,67.4,29.46,NNE,30,0.0,4.0,96,0.01,,OVC,2.92,0.00,VWS V14.00,2013-06-08 00:24:00,
2013-06-07 20:29:00,68.5,67.3,29.46,NNE,19,0.0,2.0,96,0.01,,OVC,2.92,0.00,VWS V14.00,2013-06-08 00:29:00,
2013-06-07 20:34:00,68.5,67.3,29.47,North,10,0.0,3.0,96,0.02,,OVC,2.93,0.00,VWS V14.00,2013-06-08 00:34:00,
2013-06-07 20:40:00,68.4,67.2,29.47,NNE,15,0.0,3.0,96,0.02,,OVC,2.93,0.00,VWS V14.00,2013-06-08 00:40:00,
2013-06-07 20:45:00,68.4,67.2,29.47,NNE,14,1.0,2.0,96,0.02,,OVC,2.93,0.00,VWS V14.00,2013-06-08 00:45:00,
2013-06-07 20:50:00,68.3,67.1,29.47,NW,308,2.0,5.0,96,0.03,,OVC,2.94,0.00,VWS V14.00,2013-06-08 00:50:00,
2013-06-07 20:55:00,68.3,67.1,29.47,NNW,338,0.0,5.0,96,0.04,,OVC,2.95,0.00,VWS V14.00,2013-06-08 00:55:00,
2013-06-07 21:00:00,68.2,67.0,29.48,NNW,333,0.0,2.0,96,0.04,,OVC,2.95,0.00,VWS V14.00,2013-06-08 01:00:00,
2013-06-07 21:05:00,68.2,67.0,29.48,North,350,0.0,4.0,96,0.04,,OVC,2.95,0.00,VWS V14.00,2013-06-08 01:05:00,
2013-06-07 21:10:00,68.1,66.9,29.48,NE,42,0.0,4.0,96,0.04,,OVC,2.95,0.00,VWS V14.00,2013-06-08 01:10:00,
2013-06-07 21:16:00,68.1,66.9,29.49,NNE,32,0.0,2.0,96,0.04,,OVC,2.96,0.00,VWS V14.00,2013-06-08 01:16:00,
2013-06-07 21:21:00,68.0,67.1,29.49,North,5,0.0,4.0,97,0.04,,OVC,2.96,0.00,VWS V14.00,2013-06-08 01:21:00,
2013-06-07 21:26:00,67.9,67.0,29.49,NE,52,0.0,5.0,97,0.05,,OVC,2.97,0.00,VWS V14.00,2013-06-08 01:26:00,
2013-06-07 21:31:00,67.7,66.5,29.49,NNE,30,0.0,4.0,96,0.05,,OVC,2.97,0.00,VWS V14.00,2013-06-08 01:31:00,
2013-06-07 21:37:00,67.6,66.4,29.49,NNE,29,0.0,4.0,96,0.05,,OVC,2.97,0.00,VWS V14.00,2013-06-08 01:37:00,
2013-06-07 21:42:00,67.5,66.3,29.49,NE,38,3.0,4.0,96,0.05,,OVC,2.97,0.00,VWS V14.00,2013-06-08 01:42:00,
2013-06-07 21:47:00,67.4,66.2,29.50,NNE,12,0.0,2.0,96,0.04,,OVC,2.97,0.00,VWS V14.00,2013-06-08 01:47:00,
2013-06-07 21:52:00,67.3,66.4,29.50,NNW,336,0.0,2.0,97,0.04,,OVC,2.97,0.00,VWS V14.00,2013-06-08 01:52:00,
2013-06-07 21:57:00,67.3,66.4,29.50,North,350,1.0,4.0,97,0.05,,OVC,2.98,0.00,VWS V14.00,2013-06-08 01:57:00,
2013-06-07 22:02:00,67.2,66.3,29.50,North,5,2.0,4.0,97,0.03,,OVC,2.98,0.00,VWS V14.00,2013-06-08 02:02:00,
2013-06-07 22:07:00,67.1,66.2,29.50,NNE,32,1.0,4.0,97,0.03,,OVC,2.98,0.00,VWS V14.00,2013-06-08 02:07:00,
2013-06-07 22:13:00,67.0,66.1,29.50,ENE,74,0.0,4.0,97,0.04,,OVC,2.99,0.00,VWS V14.00,2013-06-08 02:13:00,
2013-06-07 22:18:00,66.9,65.7,29.51,NNE,13,1.0,2.0,96,0.03,,OVC,2.99,0.00,VWS V14.00,2013-06-08 02:18:00,
2013-06-07 22:23:00,66.7,65.5,29.51,NE,39,0.0,4.0,96,0.03,,OVC,2.99,0.00,VWS V14.00,2013-06-08 02:23:00,
2013-06-07 22:28:00,66.6,65.4,29.51,North,5,1.0,1.0,96,0.02,,OVC,2.99,0.00,VWS V14.00,2013-06-08 02:28:00,
2013-06-07 22:33:00,66.5,65.3,29.51,NNW,338,1.0,4.0,96,0.02,,OVC,2.99,0.00,VWS V14.00,2013-06-08 02:33:00,
2013-06-07 22:38:00,66.4,65.2,29.52,NNW,338,0.0,4.0,96,0.02,,OVC,2.99,0.00,VWS V14.00,2013-06-08 02:38:00,
2013-06-07 22:43:00,66.3,65.1,29.52,WNW,300,0.0,1.0,96,0.02,,OVC,2.99,0.00,VWS V14.00,2013-06-08 02:43:00,
2013-06-07 22:48:00,66.4,65.5,29.52,NW,307,0.0,1.0,97,0.02,,OVC,2.99,0.00,VWS V14.00,2013-06-08 02:48:00,
2013-06-07 22:54:00,66.3,65.4,29.53,WNW,291,0.0,2.0,97,0.03,,OVC,3.00,0.00,VWS V14.00,2013-06-08 02:54:00,
2013-06-07 22:59:00,66.3,65.4,29.53,SSW,198,0.0,0.0,97,0.03,,OVC,3.01,0.00,VWS V14.00,2013-06-08 02:59:00,
2013-06-07 23:04:00,66.3,65.4,29.53,SSW,198,0.0,1.0,97,0.03,,OVC,3.01,0.00,VWS V14.00,2013-06-08 03:04:00,
2013-06-07 23:09:00,66.3,65.1,29.53,SSW,202,0.0,1.0,96,0.03,,OVC,3.01,0.00,VWS V14.00,2013-06-08 03:09:00,
2013-06-07 23:14:00,66.3,65.1,29.53,West,275,0.0,2.0,96,0.02,,OVC,3.01,0.00,VWS V14.00,2013-06-08 03:14:00,
2013-06-07 23:20:00,66.2,65.0,29.53,West,275,0.0,2.0,96,0.02,,OVC,3.01,0.00,VWS V14.00,2013-06-08 03:20:00,
2013-06-07 23:25:00,66.2,65.0,29.53,North,360,0.0,3.0,96,0.02,,OVC,3.01,0.00,VWS V14.00,2013-06-08 03:25:00,
2013-06-07 23:30:00,66.2,65.0,29.54,North,360,0.0,0.0,96,0.02,,OVC,3.01,0.00,VWS V14.00,2013-06-08 03:30:00,
2013-06-07 23:35:00,66.1,64.9,29.54,NW,320,0.0,2.0,96,0.02,,OVC,3.01,0.00,VWS V14.00,2013-06-08 03:35:00,
2013-06-07 23:40:00,66.0,64.8,29.55,SSW,200,0.0,4.0,96,0.02,,OVC,3.01,0.00,VWS V14.00,2013-06-08 03:40:00,
2013-06-07 23:45:00,66.0,64.8,29.55,SSE,162,0.0,1.0,96,0.02,,OVC,3.01,0.00,VWS V14.00,2013-06-08 03:45:00,
2013-06-07 23:50:00,66.0,64.8,29.54,WSW,238,0.0,1.0,96,0.02,,OVC,3.01,0.00,VWS V14.00,2013-06-08 03:50:00,
2013-06-07 23:55:00,66.0,65.1,29.54,WNW,290,0.0,2.0,97,0.02,,OVC,3.01,0.00,VWS V14.00,2013-06-08 03:55:00,